SNIPER2 ETNL-ETNL
Flight info
| Callsign | SNIPER2 |
|---|---|
| Flight time | 0h 9m |
| Altitude | 30000 |
| Route | NL127 LUWIL DCT UBAKA DCT PENEK DCT HOZ DCT MILGU DCT TALEG TR208VFRSTAY1/0130 TALEGIFR DCT MILGU DCT HOZ DCT LUPAK DCT TABOK DCT EBAWE DCT LAG |
| Aircraft | EUFI/M-GIRLTUYZ/LB1 |
Departure
| Time | 2026-04-24 20:25 |
|---|---|
| Airport | Rostock-Laage Airport (ETNL) |
Arrival
| Time | 2026-04-24 20:34 |
|---|---|
| Airport | Rostock-Laage Airport (ETNL) |
| Time | Latitude | Longitude | Altitude | Speed | Heading |
|---|---|---|---|---|---|
| 2026-04-24 17:10 | 53.92246 | 12.26809 | 146 ft | 0 kts | 98° |
| 2026-04-24 18:54 | 51.04431 | 12.53518 | 18113 ft | 378 kts | 220° |
| 2026-04-24 18:55 | 51.00292 | 12.48814 | 18098 ft | 364 kts | 218° |
| 2026-04-24 18:55 | 50.98199 | 12.46519 | 18126 ft | 364 kts | 219° |
| 2026-04-24 18:55 | 50.96115 | 12.44133 | 18141 ft | 367 kts | 221° |
| 2026-04-24 18:56 | 50.94103 | 12.41787 | 18616 ft | 360 kts | 220° |
| 2026-04-24 18:56 | 50.92063 | 12.39424 | 19336 ft | 354 kts | 224° |
| 2026-04-24 18:56 | 50.90089 | 12.36894 | 19753 ft | 366 kts | 223° |
| 2026-04-24 18:56 | 50.88171 | 12.34445 | 20149 ft | 364 kts | 224° |
| 2026-04-24 18:57 | 50.86130 | 12.31730 | 20486 ft | 410 kts | 224° |
| 2026-04-24 18:57 | 50.83933 | 12.28786 | 20804 ft | 404 kts | 224° |
| 2026-04-24 18:57 | 50.82525 | 12.26836 | 21023 ft | 409 kts | 226° |
| 2026-04-24 18:57 | 50.80385 | 12.23827 | 21526 ft | 410 kts | 224° |
| 2026-04-24 18:58 | 50.78206 | 12.20898 | 21964 ft | 406 kts | 224° |
| 2026-04-24 18:58 | 50.76047 | 12.18002 | 22325 ft | 404 kts | 223° |
| 2026-04-24 18:58 | 50.73881 | 12.15095 | 22719 ft | 413 kts | 225° |
| 2026-04-24 18:58 | 50.71706 | 12.12088 | 23157 ft | 415 kts | 224° |
| 2026-04-24 18:59 | 50.69474 | 12.09058 | 23218 ft | 435 kts | 225° |
| 2026-04-24 18:59 | 50.67032 | 12.05728 | 23330 ft | 493 kts | 224° |
| 2026-04-24 18:59 | 50.64494 | 12.02162 | 23457 ft | 490 kts | 225° |
| 2026-04-24 18:59 | 50.61877 | 11.98931 | 23430 ft | 450 kts | 192° |
| 2026-04-24 19:00 | 50.58898 | 11.99743 | 23168 ft | 451 kts | 143° |
| 2026-04-24 19:00 | 50.56603 | 12.03362 | 23090 ft | 495 kts | 134° |
| 2026-04-24 19:00 | 50.54089 | 12.07646 | 22880 ft | 574 kts | 129° |
| 2026-04-24 19:00 | 50.51582 | 12.12598 | 22604 ft | 576 kts | 134° |
| 2026-04-24 19:01 | 50.48854 | 12.17022 | 22787 ft | 562 kts | 125° |
| 2026-04-24 19:01 | 50.48630 | 12.22293 | 22773 ft | 478 kts | 58° |
| 2026-04-24 19:01 | 50.50776 | 12.26340 | 22788 ft | 497 kts | 44° |
| 2026-04-24 19:01 | 50.53156 | 12.30229 | 22709 ft | 496 kts | 41° |
| 2026-04-24 19:02 | 50.55534 | 12.34009 | 22681 ft | 480 kts | 42° |
| 2026-04-24 19:02 | 50.57855 | 12.37746 | 22545 ft | 491 kts | 43° |
| 2026-04-24 19:02 | 50.60249 | 12.41609 | 22500 ft | 495 kts | 42° |
| 2026-04-24 19:02 | 50.62688 | 12.45466 | 22448 ft | 494 kts | 42° |
| 2026-04-24 19:03 | 50.65102 | 12.49322 | 22342 ft | 496 kts | 42° |
| 2026-04-24 19:03 | 50.67509 | 12.53164 | 22271 ft | 483 kts | 42° |
| 2026-04-24 19:03 | 50.69871 | 12.56954 | 22173 ft | 488 kts | 42° |
| 2026-04-24 19:03 | 50.72238 | 12.60756 | 22096 ft | 485 kts | 42° |
| 2026-04-24 19:04 | 50.74573 | 12.64523 | 22000 ft | 480 kts | 42° |
| 2026-04-24 19:04 | 50.76915 | 12.68302 | 21890 ft | 480 kts | 42° |
| 2026-04-24 19:04 | 50.79269 | 12.72040 | 21650 ft | 474 kts | 36° |
| 2026-04-24 19:04 | 50.81647 | 12.75647 | 21643 ft | 489 kts | 42° |
| 2026-04-24 19:05 | 50.84003 | 12.79496 | 21544 ft | 486 kts | 42° |
| 2026-04-24 19:05 | 50.86338 | 12.83302 | 21632 ft | 474 kts | 42° |
| 2026-04-24 19:05 | 50.88662 | 12.87040 | 21691 ft | 479 kts | 41° |
| 2026-04-24 19:05 | 50.90994 | 12.90803 | 21633 ft | 480 kts | 42° |
| 2026-04-24 19:06 | 50.93306 | 12.94510 | 21604 ft | 479 kts | 42° |
| 2026-04-24 19:06 | 50.95674 | 12.98364 | 21566 ft | 485 kts | 42° |
| 2026-04-24 19:06 | 50.98023 | 13.02159 | 21564 ft | 479 kts | 42° |
| 2026-04-24 19:06 | 51.00358 | 13.05932 | 21537 ft | 475 kts | 42° |
| 2026-04-24 19:07 | 51.02870 | 13.09086 | 21610 ft | 460 kts | 26° |
| 2026-04-24 19:07 | 51.05926 | 13.11034 | 21551 ft | 476 kts | 8° |
| 2026-04-24 19:07 | 51.09103 | 13.11762 | 21644 ft | 460 kts | 4° |
| 2026-04-24 19:07 | 51.12268 | 13.12389 | 21664 ft | 459 kts | 4° |
| 2026-04-24 19:08 | 51.15405 | 13.13025 | 21659 ft | 459 kts | 4° |
| 2026-04-24 19:08 | 51.18575 | 13.13679 | 21518 ft | 460 kts | 1° |
| 2026-04-24 19:08 | 51.21485 | 13.12271 | 21146 ft | 452 kts | 327° |
| 2026-04-24 19:08 | 51.24140 | 13.09477 | 21114 ft | 458 kts | 324° |
| 2026-04-24 19:09 | 51.26752 | 13.06563 | 21086 ft | 460 kts | 324° |
| 2026-04-24 19:09 | 51.29310 | 13.03721 | 21098 ft | 446 kts | 324° |
| 2026-04-24 19:09 | 51.31803 | 13.01000 | 21111 ft | 413 kts | 326° |
| 2026-04-24 19:09 | 51.34073 | 12.98997 | 20902 ft | 354 kts | 336° |
| 2026-04-24 19:10 | 51.36365 | 12.97801 | 20849 ft | 338 kts | 340° |
| 2026-04-24 19:10 | 51.38109 | 12.96278 | 20611 ft | 252 kts | 316° |
| 2026-04-24 19:10 | 51.39224 | 12.94230 | 20865 ft | 229 kts | 277° |
| 2026-04-24 19:10 | 51.38717 | 12.92165 | 21124 ft | 213 kts | 236° |
| 2026-04-24 19:11 | 51.37678 | 12.90142 | 20832 ft | 269 kts | 239° |
| 2026-04-24 19:11 | 51.36320 | 12.87272 | 21256 ft | 391 kts | 236° |
| 2026-04-24 19:11 | 51.34253 | 12.83211 | 21725 ft | 525 kts | 231° |
| 2026-04-24 19:11 | 51.31347 | 12.79005 | 21834 ft | 587 kts | 219° |
| 2026-04-24 19:12 | 51.27971 | 12.75359 | 21837 ft | 587 kts | 215° |
| 2026-04-24 19:12 | 51.24634 | 12.72034 | 22152 ft | 541 kts | 215° |
| 2026-04-24 19:12 | 51.21423 | 12.68919 | 22290 ft | 540 kts | 214° |
| 2026-04-24 19:12 | 51.18101 | 12.66069 | 22155 ft | 547 kts | 206° |
| 2026-04-24 19:13 | 51.15771 | 12.64618 | 22557 ft | 542 kts | 202° |
| 2026-04-24 19:13 | 51.11086 | 12.61549 | 23017 ft | 547 kts | 210° |
| 2026-04-24 19:13 | 51.07718 | 12.58748 | 23450 ft | 545 kts | 212° |
| 2026-04-24 19:13 | 51.04538 | 12.55822 | 23607 ft | 519 kts | 214° |
| 2026-04-24 19:14 | 51.01436 | 12.52877 | 23623 ft | 515 kts | 214° |
| 2026-04-24 19:14 | 50.98421 | 12.49973 | 23404 ft | 495 kts | 226° |
| 2026-04-24 19:14 | 50.96979 | 12.45784 | 22911 ft | 414 kts | 255° |
| 2026-04-24 19:14 | 50.96017 | 12.41162 | 23180 ft | 463 kts | 255° |
| 2026-04-24 19:15 | 50.95003 | 12.36230 | 23226 ft | 478 kts | 255° |
| 2026-04-24 19:15 | 50.93260 | 12.31677 | 23146 ft | 506 kts | 222° |
| 2026-04-24 19:15 | 50.90117 | 12.29256 | 23113 ft | 512 kts | 204° |
| 2026-04-24 19:15 | 50.86737 | 12.27208 | 23096 ft | 534 kts | 204° |
| 2026-04-24 19:16 | 50.79507 | 12.25729 | 22914 ft | 500 kts | 186° |
| 2026-04-24 19:16 | 50.75983 | 12.25207 | 23031 ft | 533 kts | 192° |
| 2026-04-24 19:16 | 50.72190 | 12.23688 | 23229 ft | 579 kts | 206° |
| 2026-04-24 19:17 | 50.68544 | 12.20859 | 23357 ft | 586 kts | 212° |
| 2026-04-24 19:17 | 50.65126 | 12.17616 | 23380 ft | 555 kts | 214° |
| 2026-04-24 19:17 | 50.61901 | 12.14575 | 23313 ft | 533 kts | 213° |
| 2026-04-24 19:17 | 50.58617 | 12.11808 | 23218 ft | 542 kts | 203° |
| 2026-04-24 19:18 | 50.54858 | 12.11138 | 23096 ft | 568 kts | 170° |
| 2026-04-24 19:18 | 50.51543 | 12.14030 | 23014 ft | 532 kts | 132° |
| 2026-04-24 19:18 | 50.49896 | 12.19144 | 23021 ft | 532 kts | 96° |
| 2026-04-24 19:18 | 50.50599 | 12.24567 | 23174 ft | 509 kts | 55° |
| 2026-04-24 19:19 | 50.52993 | 12.28808 | 23037 ft | 529 kts | 33° |
| 2026-04-24 19:19 | 50.56203 | 12.31599 | 23068 ft | 526 kts | 23° |
| 2026-04-24 19:19 | 50.59533 | 12.34206 | 23261 ft | 535 kts | 23° |
| 2026-04-24 19:19 | 50.62699 | 12.36686 | 23218 ft | 505 kts | 24° |
| 2026-04-24 19:20 | 50.65747 | 12.39125 | 23217 ft | 479 kts | 23° |
| 2026-04-24 19:20 | 50.68775 | 12.41548 | 23194 ft | 491 kts | 23° |
| 2026-04-24 19:20 | 50.71764 | 12.43975 | 23148 ft | 489 kts | 23° |
| 2026-04-24 19:20 | 50.74744 | 12.46380 | 23119 ft | 478 kts | 24° |
| 2026-04-24 19:21 | 50.77676 | 12.48631 | 22835 ft | 474 kts | 24° |
| 2026-04-24 19:21 | 50.80709 | 12.51093 | 23010 ft | 482 kts | 24° |
| 2026-04-24 19:21 | 50.83676 | 12.53494 | 22958 ft | 479 kts | 24° |
| 2026-04-24 19:21 | 50.86645 | 12.55898 | 22850 ft | 487 kts | 25° |
| 2026-04-24 19:22 | 50.88575 | 12.57564 | 22724 ft | 476 kts | 23° |
| 2026-04-24 19:22 | 50.92577 | 12.60821 | 22763 ft | 481 kts | 23° |
| 2026-04-24 19:22 | 50.95530 | 12.63231 | 22675 ft | 479 kts | 23° |
| 2026-04-24 19:22 | 50.98495 | 12.65650 | 22596 ft | 476 kts | 23° |
| 2026-04-24 19:23 | 51.01427 | 12.68062 | 22523 ft | 476 kts | 23° |
| 2026-04-24 19:23 | 51.04373 | 12.70463 | 22500 ft | 475 kts | 24° |
| 2026-04-24 19:23 | 51.07313 | 12.72871 | 22496 ft | 475 kts | 23° |
| 2026-04-24 19:23 | 51.10184 | 12.75442 | 22447 ft | 477 kts | 40° |
| 2026-04-24 19:24 | 51.12974 | 12.77935 | 22479 ft | 464 kts | 24° |
| 2026-04-24 19:24 | 51.15894 | 12.80418 | 22435 ft | 480 kts | 24° |
| 2026-04-24 19:24 | 51.18959 | 12.82156 | 22178 ft | 461 kts | 16° |
| 2026-04-24 19:24 | 51.21956 | 12.84535 | 22374 ft | 497 kts | 21° |
| 2026-04-24 19:25 | 51.25105 | 12.86040 | 22362 ft | 472 kts | 6° |
| 2026-04-24 19:25 | 51.28324 | 12.86600 | 22345 ft | 462 kts | 2° |
| 2026-04-24 19:25 | 51.31483 | 12.87316 | 22348 ft | 465 kts | 8° |
| 2026-04-24 19:25 | 51.34515 | 12.89503 | 22041 ft | 495 kts | 30° |
| 2026-04-24 19:26 | 51.36949 | 12.93310 | 22032 ft | 492 kts | 53° |
| 2026-04-24 19:26 | 51.38273 | 12.98484 | 22205 ft | 519 kts | 76° |
| 2026-04-24 19:26 | 51.38370 | 13.04221 | 22112 ft | 523 kts | 99° |
| 2026-04-24 19:26 | 51.37094 | 13.09631 | 22102 ft | 527 kts | 121° |
| 2026-04-24 19:27 | 51.34651 | 13.14028 | 22210 ft | 533 kts | 143° |
| 2026-04-24 19:27 | 51.31482 | 13.16804 | 22286 ft | 514 kts | 162° |
| 2026-04-24 19:27 | 51.28049 | 13.17791 | 22251 ft | 501 kts | 183° |
| 2026-04-24 19:27 | 51.24711 | 13.16840 | 22240 ft | 500 kts | 206° |
| 2026-04-24 19:28 | 51.21816 | 13.13860 | 22211 ft | 487 kts | 225° |
| 2026-04-24 19:28 | 51.19285 | 13.10373 | 22287 ft | 481 kts | 219° |
| 2026-04-24 19:28 | 51.16230 | 13.09973 | 22307 ft | 454 kts | 154° |
| 2026-04-24 19:28 | 51.13535 | 13.09780 | 22192 ft | 367 kts | 223° |
| 2026-04-24 19:29 | 51.09049 | 13.03663 | 22133 ft | 473 kts | 226° |
| 2026-04-24 19:29 | 51.06607 | 13.00013 | 22131 ft | 491 kts | 227° |
| 2026-04-24 19:29 | 51.04175 | 12.96275 | 22146 ft | 487 kts | 228° |
| 2026-04-24 19:30 | 51.01728 | 12.92453 | 22119 ft | 479 kts | 228° |
| 2026-04-24 19:30 | 50.99393 | 12.88809 | 22133 ft | 475 kts | 228° |
| 2026-04-24 19:30 | 50.97116 | 12.85285 | 22127 ft | 444 kts | 228° |
| 2026-04-24 19:30 | 50.94968 | 12.81997 | 22102 ft | 405 kts | 228° |
| 2026-04-24 19:31 | 50.92946 | 12.78944 | 22066 ft | 425 kts | 227° |
| 2026-04-24 19:31 | 50.90618 | 12.75401 | 22136 ft | 508 kts | 227° |
| 2026-04-24 19:31 | 50.87922 | 12.71288 | 22139 ft | 561 kts | 227° |
| 2026-04-24 19:31 | 50.85114 | 12.67016 | 22191 ft | 558 kts | 227° |
| 2026-04-24 19:32 | 50.82394 | 12.62621 | 22097 ft | 552 kts | 242° |
| 2026-04-24 19:32 | 50.81111 | 12.57139 | 22939 ft | 515 kts | 270° |
| 2026-04-24 19:32 | 50.81914 | 12.51792 | 22856 ft | 488 kts | 288° |
| 2026-04-24 19:32 | 50.82888 | 12.46980 | 22516 ft | 452 kts | 297° |
| 2026-04-24 19:33 | 50.85083 | 12.43123 | 22344 ft | 495 kts | 320° |
| 2026-04-24 19:33 | 50.87640 | 12.39835 | 22088 ft | 472 kts | 316° |
| 2026-04-24 19:33 | 50.89339 | 12.35564 | 22145 ft | 476 kts | 272° |
| 2026-04-24 19:33 | 50.88294 | 12.30707 | 22075 ft | 465 kts | 229° |
| 2026-04-24 19:34 | 50.85532 | 12.28146 | 21782 ft | 443 kts | 205° |
| 2026-04-24 19:34 | 50.82597 | 12.26383 | 21743 ft | 459 kts | 204° |
| 2026-04-24 19:34 | 50.79678 | 12.24690 | 21721 ft | 427 kts | 204° |
| 2026-04-24 19:34 | 50.76856 | 12.23176 | 21579 ft | 435 kts | 202° |
| 2026-04-24 19:35 | 50.73988 | 12.21702 | 21529 ft | 435 kts | 201° |
| 2026-04-24 19:35 | 50.71040 | 12.20316 | 21273 ft | 458 kts | 200° |
| 2026-04-24 19:35 | 50.68105 | 12.18340 | 20679 ft | 469 kts | 214° |
| 2026-04-24 19:35 | 50.65274 | 12.15914 | 20066 ft | 452 kts | 217° |
| 2026-04-24 19:36 | 50.62447 | 12.13418 | 19796 ft | 488 kts | 196° |
| 2026-04-24 19:36 | 50.59088 | 12.14518 | 20001 ft | 547 kts | 144° |
| 2026-04-24 19:36 | 50.57200 | 12.19063 | 20168 ft | 457 kts | 97° |
| 2026-04-24 19:36 | 50.57765 | 12.23783 | 20583 ft | 454 kts | 65° |
| 2026-04-24 19:37 | 50.59217 | 12.28299 | 20823 ft | 466 kts | 51° |
| 2026-04-24 19:37 | 50.61538 | 12.31936 | 21327 ft | 487 kts | 33° |
| 2026-04-24 19:37 | 50.64393 | 12.34445 | 22075 ft | 467 kts | 24° |
| 2026-04-24 19:37 | 50.67195 | 12.36891 | 22409 ft | 464 kts | 25° |
| 2026-04-24 19:38 | 50.70037 | 12.39241 | 22764 ft | 464 kts | 23° |
| 2026-04-24 19:38 | 50.72950 | 12.41483 | 23053 ft | 482 kts | 23° |
| 2026-04-24 19:38 | 50.76016 | 12.44073 | 23442 ft | 523 kts | 25° |
| 2026-04-24 19:38 | 50.79328 | 12.46164 | 23803 ft | 502 kts | 355° |
| 2026-04-24 19:39 | 50.82396 | 12.43756 | 24083 ft | 524 kts | 307° |
| 2026-04-24 19:39 | 50.84640 | 12.39350 | 24096 ft | 533 kts | 347° |
| 2026-04-24 19:39 | 50.87771 | 12.41809 | 24247 ft | 576 kts | 74° |
| 2026-04-24 19:39 | 50.87180 | 12.48194 | 24183 ft | 617 kts | 98° |
| 2026-04-24 19:40 | 50.88212 | 12.54103 | 24201 ft | 558 kts | 31° |
| 2026-04-24 19:40 | 50.91711 | 12.56874 | 23698 ft | 564 kts | 22° |
| 2026-04-24 19:40 | 50.95243 | 12.59481 | 23102 ft | 557 kts | 22° |
| 2026-04-24 19:40 | 50.98766 | 12.62285 | 23086 ft | 553 kts | 24° |
| 2026-04-24 19:41 | 51.02183 | 12.65232 | 23603 ft | 574 kts | 27° |
| 2026-04-24 19:41 | 51.05675 | 12.68494 | 24198 ft | 579 kts | 26° |
| 2026-04-24 19:41 | 51.09049 | 12.71362 | 24589 ft | 543 kts | 25° |
| 2026-04-24 19:41 | 51.12483 | 12.74241 | 24773 ft | 559 kts | 24° |
| 2026-04-24 19:42 | 51.15907 | 12.76996 | 24925 ft | 547 kts | 22° |
| 2026-04-24 19:42 | 51.19291 | 12.79707 | 24917 ft | 544 kts | 23° |
| 2026-04-24 19:42 | 51.22642 | 12.82427 | 24920 ft | 537 kts | 23° |
| 2026-04-24 19:42 | 51.25932 | 12.85093 | 24885 ft | 517 kts | 24° |
| 2026-04-24 19:43 | 51.28134 | 12.88553 | 24689 ft | 353 kts | 132° |
| 2026-04-24 19:43 | 51.26455 | 12.89253 | 23752 ft | 289 kts | 217° |
| 2026-04-24 19:43 | 51.24384 | 12.86874 | 23068 ft | 467 kts | 222° |
| 2026-04-24 19:43 | 51.21405 | 12.83042 | 22705 ft | 590 kts | 222° |
| 2026-04-24 19:44 | 51.18133 | 12.79140 | 22736 ft | 576 kts | 216° |
| 2026-04-24 19:44 | 51.14736 | 12.75972 | 22672 ft | 556 kts | 212° |
| 2026-04-24 19:44 | 51.11330 | 12.72966 | 22781 ft | 565 kts | 212° |
| 2026-04-24 19:44 | 51.07900 | 12.70064 | 23037 ft | 543 kts | 209° |
| 2026-04-24 19:45 | 51.04588 | 12.67587 | 23083 ft | 518 kts | 208° |
| 2026-04-24 19:45 | 51.01407 | 12.65394 | 23099 ft | 496 kts | 206° |
| 2026-04-24 19:45 | 50.98277 | 12.63191 | 22775 ft | 509 kts | 210° |
| 2026-04-24 19:45 | 50.95318 | 12.60113 | 21514 ft | 483 kts | 220° |
| 2026-04-24 19:46 | 50.92737 | 12.57235 | 20875 ft | 440 kts | 218° |
| 2026-04-24 19:46 | 50.90277 | 12.54582 | 20396 ft | 431 kts | 218° |
| 2026-04-24 19:46 | 50.87695 | 12.51982 | 19839 ft | 445 kts | 214° |
| 2026-04-24 19:46 | 50.84917 | 12.49411 | 19325 ft | 472 kts | 213° |
| 2026-04-24 19:47 | 50.82066 | 12.46841 | 18770 ft | 468 kts | 212° |
| 2026-04-24 19:47 | 50.79218 | 12.44424 | 18177 ft | 478 kts | 209° |
| 2026-04-24 19:47 | 50.77016 | 12.43142 | 17799 ft | 538 kts | 193° |
| 2026-04-24 19:47 | 50.73532 | 12.47053 | 16603 ft | 509 kts | 89° |
| 2026-04-24 19:48 | 50.73964 | 12.50778 | 16538 ft | 525 kts | 77° |
| 2026-04-24 19:48 | 50.75441 | 12.55076 | 16600 ft | 374 kts | 21° |
| 2026-04-24 19:48 | 50.80071 | 12.57395 | 16234 ft | 402 kts | 30° |
| 2026-04-24 19:49 | 50.84766 | 12.63113 | 18225 ft | 430 kts | 36° |
| 2026-04-24 19:49 | 50.89475 | 12.69101 | 18158 ft | 370 kts | 31° |
| 2026-04-24 19:50 | 50.95706 | 12.76050 | 18146 ft | 370 kts | 32° |
| 2026-04-24 19:50 | 50.97752 | 12.78302 | 18127 ft | 367 kts | 29° |
| 2026-04-24 19:51 | 51.02330 | 12.81317 | 17975 ft | 353 kts | 1° |
| 2026-04-24 19:51 | 51.04785 | 12.81166 | 17917 ft | 350 kts | 341° |
| 2026-04-24 19:52 | 51.08845 | 12.77713 | 17888 ft | 349 kts | 312° |
| 2026-04-24 19:52 | 51.10381 | 12.74949 | 17877 ft | 324 kts | 301° |
| 2026-04-24 19:52 | 51.11274 | 12.71502 | 17918 ft | 341 kts | 284° |
| 2026-04-24 19:52 | 51.11473 | 12.67699 | 18030 ft | 353 kts | 268° |
| 2026-04-24 19:53 | 51.10974 | 12.63889 | 18053 ft | 353 kts | 253° |
| 2026-04-24 19:53 | 51.09786 | 12.60415 | 18109 ft | 355 kts | 236° |
| 2026-04-24 19:53 | 51.05934 | 12.55291 | 18112 ft | 364 kts | 220° |
| 2026-04-24 19:54 | 51.03885 | 12.52939 | 18116 ft | 362 kts | 220° |
| 2026-04-24 19:54 | 51.01831 | 12.50613 | 18115 ft | 365 kts | 219° |
| 2026-04-24 19:54 | 50.99754 | 12.48290 | 18111 ft | 365 kts | 219° |
| 2026-04-24 19:54 | 50.97678 | 12.45989 | 18112 ft | 362 kts | 219° |
| 2026-04-24 19:55 | 50.96305 | 12.44477 | 18106 ft | 363 kts | 219° |
| 2026-04-24 19:55 | 50.93559 | 12.41432 | 18096 ft | 361 kts | 220° |
| 2026-04-24 19:55 | 50.91508 | 12.39121 | 18179 ft | 352 kts | 221° |
| 2026-04-24 19:55 | 50.89386 | 12.36795 | 18131 ft | 377 kts | 219° |
| 2026-04-24 19:56 | 50.87302 | 12.34462 | 18157 ft | 368 kts | 219° |
| 2026-04-24 19:56 | 50.85227 | 12.32203 | 18130 ft | 364 kts | 219° |
| 2026-04-24 19:56 | 50.83198 | 12.29951 | 18140 ft | 359 kts | 218° |
| 2026-04-24 19:56 | 50.81131 | 12.27671 | 18145 ft | 370 kts | 219° |
| 2026-04-24 19:57 | 50.79048 | 12.25376 | 18145 ft | 368 kts | 219° |
| 2026-04-24 19:57 | 50.76987 | 12.23076 | 18226 ft | 359 kts | 219° |
| 2026-04-24 19:57 | 50.74942 | 12.20802 | 18874 ft | 350 kts | 220° |
| 2026-04-24 19:57 | 50.73070 | 12.18824 | 19360 ft | 319 kts | 210° |
| 2026-04-24 19:58 | 50.70912 | 12.17734 | 19679 ft | 350 kts | 194° |
| 2026-04-24 19:58 | 50.68215 | 12.17513 | 20065 ft | 432 kts | 178° |
| 2026-04-24 19:58 | 50.65240 | 12.18796 | 20413 ft | 408 kts | 141° |
| 2026-04-24 19:58 | 50.63248 | 12.22082 | 20501 ft | 420 kts | 126° |
| 2026-04-24 19:59 | 50.62074 | 12.26272 | 20946 ft | 437 kts | 98° |
| 2026-04-24 19:59 | 50.62090 | 12.31034 | 21418 ft | 437 kts | 75° |
| 2026-04-24 19:59 | 50.63161 | 12.35539 | 22013 ft | 433 kts | 54° |
| 2026-04-24 19:59 | 50.65123 | 12.39040 | 22334 ft | 416 kts | 30° |
| 2026-04-24 20:00 | 50.67637 | 12.41253 | 22694 ft | 410 kts | 24° |
| 2026-04-24 20:00 | 50.70134 | 12.43109 | 22401 ft | 391 kts | 24° |
| 2026-04-24 20:00 | 50.72764 | 12.45053 | 22243 ft | 445 kts | 18° |
| 2026-04-24 20:00 | 50.75414 | 12.46820 | 21759 ft | 397 kts | 22° |
| 2026-04-24 20:01 | 50.77831 | 12.48744 | 22245 ft | 384 kts | 21° |
| 2026-04-24 20:01 | 50.80354 | 12.50734 | 23141 ft | 418 kts | 23° |
| 2026-04-24 20:01 | 50.82956 | 12.52846 | 23892 ft | 414 kts | 23° |
| 2026-04-24 20:01 | 50.85527 | 12.54575 | 24472 ft | 391 kts | 15° |
| 2026-04-24 20:02 | 50.87242 | 12.55459 | 24852 ft | 394 kts | 12° |
| 2026-04-24 20:02 | 50.90925 | 12.57047 | 25897 ft | 413 kts | 10° |
| 2026-04-24 20:02 | 50.93725 | 12.57996 | 26779 ft | 410 kts | 2° |
| 2026-04-24 20:02 | 50.96587 | 12.58471 | 27597 ft | 406 kts | 1° |
| 2026-04-24 20:03 | 50.99344 | 12.59101 | 27953 ft | 399 kts | 6° |
| 2026-04-24 20:03 | 51.02059 | 12.59938 | 28239 ft | 388 kts | 3° |
| 2026-04-24 20:03 | 51.04585 | 12.60430 | 28788 ft | 349 kts | 0° |
| 2026-04-24 20:03 | 51.06935 | 12.60990 | 29087 ft | 345 kts | 4° |
| 2026-04-24 20:04 | 51.09380 | 12.61738 | 29319 ft | 371 kts | 5° |
| 2026-04-24 20:04 | 51.11975 | 12.62931 | 29216 ft | 411 kts | 20° |
| 2026-04-24 20:04 | 51.14682 | 12.65148 | 29051 ft | 468 kts | 26° |
| 2026-04-24 20:04 | 51.17497 | 12.68103 | 28892 ft | 499 kts | 29° |
| 2026-04-24 20:05 | 51.20416 | 12.71284 | 28910 ft | 510 kts | 28° |
| 2026-04-24 20:05 | 51.23433 | 12.73843 | 29204 ft | 445 kts | 20° |
| 2026-04-24 20:05 | 51.25995 | 12.75982 | 29200 ft | 409 kts | 24° |
| 2026-04-24 20:06 | 51.30980 | 12.80278 | 29179 ft | 412 kts | 21° |
| 2026-04-24 20:06 | 51.36178 | 12.84468 | 29372 ft | 456 kts | 20° |
| 2026-04-24 20:06 | 51.39213 | 12.86856 | 29491 ft | 517 kts | 21° |
| 2026-04-24 20:07 | 51.41427 | 12.88634 | 29453 ft | 544 kts | 23° |
| 2026-04-24 20:07 | 51.45758 | 12.92394 | 29289 ft | 517 kts | 24° |
| 2026-04-24 20:07 | 51.48908 | 12.95175 | 29214 ft | 516 kts | 24° |
| 2026-04-24 20:08 | 51.55199 | 13.00774 | 29122 ft | 521 kts | 24° |
| 2026-04-24 20:08 | 51.61470 | 13.06381 | 29122 ft | 517 kts | 24° |
| 2026-04-24 20:09 | 51.67780 | 13.11993 | 29115 ft | 521 kts | 24° |
| 2026-04-24 20:09 | 51.74101 | 13.17488 | 29065 ft | 509 kts | 12° |
| 2026-04-24 20:09 | 51.77436 | 13.18955 | 29111 ft | 493 kts | 6° |
| 2026-04-24 20:10 | 51.80774 | 13.19850 | 29134 ft | 482 kts | 2° |
| 2026-04-24 20:10 | 51.87432 | 13.20391 | 29189 ft | 478 kts | 354° |
| 2026-04-24 20:11 | 51.94069 | 13.20927 | 29133 ft | 476 kts | 360° |
| 2026-04-24 20:11 | 52.00627 | 13.21213 | 28941 ft | 499 kts | 356° |
| 2026-04-24 20:11 | 52.04134 | 13.21378 | 29140 ft | 492 kts | 355° |
| 2026-04-24 20:12 | 52.07366 | 13.21514 | 29042 ft | 438 kts | 356° |
| 2026-04-24 20:12 | 52.10541 | 13.21658 | 29072 ft | 484 kts | 356° |
| 2026-04-24 20:12 | 52.13910 | 13.21890 | 29133 ft | 484 kts | 357° |
| 2026-04-24 20:12 | 52.17341 | 13.22096 | 29135 ft | 499 kts | 357° |
| 2026-04-24 20:13 | 52.20811 | 13.22346 | 29121 ft | 501 kts | 358° |
| 2026-04-24 20:13 | 52.27673 | 13.22801 | 29133 ft | 489 kts | 356° |
| 2026-04-24 20:13 | 52.31018 | 13.22825 | 29099 ft | 478 kts | 348° |
| 2026-04-24 20:14 | 52.34178 | 13.21482 | 29147 ft | 468 kts | 335° |
| 2026-04-24 20:14 | 52.40281 | 13.17402 | 29216 ft | 480 kts | 332° |
| 2026-04-24 20:14 | 52.43120 | 13.15094 | 29298 ft | 430 kts | 331° |
| 2026-04-24 20:15 | 52.44379 | 13.14162 | 29160 ft | 409 kts | 332° |
| 2026-04-24 20:15 | 52.47190 | 13.12197 | 28979 ft | 453 kts | 334° |
| 2026-04-24 20:15 | 52.50386 | 13.10482 | 28928 ft | 504 kts | 341° |
| 2026-04-24 20:16 | 52.53834 | 13.08798 | 28968 ft | 522 kts | 336° |
| 2026-04-24 20:16 | 52.57193 | 13.06759 | 29068 ft | 494 kts | 336° |
| 2026-04-24 20:16 | 52.60305 | 13.04974 | 29042 ft | 467 kts | 337° |
| 2026-04-24 20:17 | 52.66427 | 13.01670 | 29100 ft | 465 kts | 337° |
| 2026-04-24 20:17 | 52.75713 | 12.96407 | 29095 ft | 469 kts | 337° |
| 2026-04-24 20:18 | 52.81867 | 12.92937 | 29078 ft | 462 kts | 337° |
| 2026-04-24 20:18 | 52.88029 | 12.89373 | 29062 ft | 477 kts | 337° |
| 2026-04-24 20:19 | 52.94324 | 12.85833 | 29065 ft | 478 kts | 337° |
| 2026-04-24 20:19 | 53.00628 | 12.82231 | 29065 ft | 476 kts | 337° |
| 2026-04-24 20:20 | 53.06820 | 12.78663 | 28278 ft | 486 kts | 337° |
| 2026-04-24 20:20 | 53.09951 | 12.76850 | 27438 ft | 471 kts | 336° |
| 2026-04-24 20:20 | 53.13128 | 12.74994 | 26663 ft | 490 kts | 338° |
| 2026-04-24 20:21 | 53.16256 | 12.73180 | 25947 ft | 482 kts | 338° |
| 2026-04-24 20:21 | 53.19417 | 12.71387 | 25211 ft | 484 kts | 338° |
| 2026-04-24 20:21 | 53.22611 | 12.69556 | 24495 ft | 489 kts | 338° |
| 2026-04-24 20:21 | 53.25804 | 12.67696 | 23806 ft | 497 kts | 338° |
| 2026-04-24 20:22 | 53.29021 | 12.65842 | 23022 ft | 483 kts | 338° |
| 2026-04-24 20:22 | 53.32190 | 12.63957 | 22230 ft | 492 kts | 338° |
| 2026-04-24 20:22 | 53.35410 | 12.62086 | 21497 ft | 482 kts | 338° |
| 2026-04-24 20:22 | 53.38570 | 12.60233 | 20742 ft | 483 kts | 338° |
| 2026-04-24 20:23 | 53.41638 | 12.58402 | 20004 ft | 460 kts | 337° |
| 2026-04-24 20:23 | 53.44622 | 12.56676 | 19256 ft | 447 kts | 340° |
| 2026-04-24 20:23 | 53.47329 | 12.55057 | 18571 ft | 369 kts | 337° |
| 2026-04-24 20:23 | 53.49748 | 12.54069 | 17725 ft | 370 kts | 355° |
| 2026-04-24 20:24 | 53.51470 | 12.54348 | 17225 ft | 382 kts | 8° |
| 2026-04-24 20:24 | 53.54809 | 12.55867 | 16192 ft | 369 kts | 13° |
| 2026-04-24 20:24 | 53.57214 | 12.57156 | 15446 ft | 360 kts | 13° |
| 2026-04-24 20:24 | 53.59527 | 12.58502 | 14679 ft | 349 kts | 14° |
| 2026-04-24 20:25 | 53.61806 | 12.59843 | 13245 ft | 342 kts | 14° |
| 2026-04-24 20:25 | 53.64058 | 12.61163 | 11781 ft | 340 kts | 14° |
| 2026-04-24 20:25 | 53.66255 | 12.62483 | 10459 ft | 332 kts | 14° |
| 2026-04-24 20:25 | 53.68322 | 12.63677 | 9109 ft | 303 kts | 14° |
| 2026-04-24 20:26 | 53.70357 | 12.64873 | 7812 ft | 309 kts | 15° |
| 2026-04-24 20:26 | 53.72257 | 12.66159 | 6489 ft | 306 kts | 16° |
| 2026-04-24 20:26 | 53.74238 | 12.67341 | 5539 ft | 290 kts | 15° |
| 2026-04-24 20:26 | 53.76082 | 12.68450 | 4897 ft | 266 kts | 19° |
| 2026-04-24 20:27 | 53.77815 | 12.69500 | 4194 ft | 248 kts | 28° |
| 2026-04-24 20:27 | 53.79438 | 12.70443 | 3633 ft | 249 kts | 18° |
| 2026-04-24 20:27 | 53.80960 | 12.71236 | 3259 ft | 222 kts | 15° |
| 2026-04-24 20:27 | 53.82406 | 12.71928 | 3175 ft | 206 kts | 4° |
| 2026-04-24 20:28 | 53.83884 | 12.71644 | 3071 ft | 205 kts | 335° |
| 2026-04-24 20:28 | 53.84830 | 12.69883 | 3052 ft | 215 kts | 304° |
| 2026-04-24 20:28 | 53.85632 | 12.67880 | 3038 ft | 208 kts | 304° |
| 2026-04-24 20:28 | 53.86423 | 12.65889 | 3012 ft | 207 kts | 304° |
| 2026-04-24 20:29 | 53.86952 | 12.64556 | 3005 ft | 205 kts | 303° |
| 2026-04-24 20:29 | 53.87962 | 12.62029 | 2988 ft | 171 kts | 304° |
| 2026-04-24 20:29 | 53.88671 | 12.60322 | 2799 ft | 172 kts | 304° |
| 2026-04-24 20:29 | 53.89260 | 12.58523 | 2609 ft | 164 kts | 290° |
| 2026-04-24 20:30 | 53.89504 | 12.56552 | 2496 ft | 184 kts | 277° |
| 2026-04-24 20:30 | 53.89631 | 12.54596 | 2311 ft | 171 kts | 277° |
| 2026-04-24 20:30 | 53.89746 | 12.52588 | 2123 ft | 170 kts | 277° |
| 2026-04-24 20:30 | 53.89861 | 12.50649 | 1922 ft | 161 kts | 277° |
| 2026-04-24 20:31 | 53.90017 | 12.48724 | 1892 ft | 177 kts | 279° |
| 2026-04-24 20:31 | 53.90220 | 12.46772 | 1907 ft | 161 kts | 280° |
| 2026-04-24 20:31 | 53.90398 | 12.45126 | 1883 ft | 144 kts | 282° |
| 2026-04-24 20:31 | 53.90546 | 12.43382 | 1754 ft | 149 kts | 278° |
| 2026-04-24 20:32 | 53.90666 | 12.41658 | 1603 ft | 149 kts | 278° |
| 2026-04-24 20:32 | 53.90793 | 12.39948 | 1437 ft | 142 kts | 279° |
| 2026-04-24 20:32 | 53.90941 | 12.38244 | 1285 ft | 148 kts | 279° |
| 2026-04-24 20:32 | 53.91090 | 12.36540 | 1049 ft | 144 kts | 278° |
| 2026-04-24 20:33 | 53.91239 | 12.34833 | 800 ft | 153 kts | 278° |
| 2026-04-24 20:33 | 53.91390 | 12.33078 | 559 ft | 153 kts | 277° |
| 2026-04-24 20:33 | 53.91537 | 12.31325 | 339 ft | 151 kts | 277° |
| 2026-04-24 20:33 | 53.91676 | 12.29662 | 159 ft | 141 kts | 277° |
| 2026-04-24 20:34 | 53.91787 | 12.28147 | 148 ft | 115 kts | 276° |
| 2026-04-24 20:34 | 53.91844 | 12.27313 | 145 ft | 101 kts | 279° |
| 2026-04-24 20:34 | 53.91923 | 12.26385 | 146 ft | 37 kts | 277° |
| 2026-04-24 20:34 | 53.91949 | 12.26123 | 144 ft | 14 kts | 294° |
| 2026-04-24 20:35 | 53.92028 | 12.26110 | 145 ft | 11 kts | 25° |
| 2026-04-24 20:35 | 53.92100 | 12.26166 | 145 ft | 11 kts | 28° |
| 2026-04-24 20:35 | 53.92174 | 12.26229 | 145 ft | 12 kts | 25° |
| 2026-04-24 20:35 | 53.92226 | 12.26278 | 145 ft | 13 kts | 46° |
| 2026-04-24 20:36 | 53.92232 | 12.26422 | 145 ft | 13 kts | 98° |
| 2026-04-24 20:36 | 53.92219 | 12.26575 | 145 ft | 13 kts | 98° |
| 2026-04-24 20:36 | 53.92210 | 12.26714 | 145 ft | 5 kts | 81° |
| 2026-04-24 20:36 | 53.92247 | 12.26734 | 145 ft | 4 kts | 18° |
| 2026-04-24 20:37 | 53.92250 | 12.26757 | 146 ft | 4 kts | 97° |
| 2026-04-24 20:37 | 53.92250 | 12.26762 | 146 ft | 0 kts | 97° |